createdAt,value
2022-12-26T00:03:19.379Z,76.87
2022-12-26T00:08:21.505Z,76.83
2022-12-26T00:13:39.466Z,77.45
2022-12-26T00:18:42.609Z,76.53
2022-12-26T00:23:45.237Z,77.20
2022-12-26T00:28:46.254Z,76.50
2022-12-26T00:33:47.709Z,77.30
2022-12-26T00:38:50.893Z,77.10
2022-12-26T00:43:52.295Z,76.44
2022-12-26T00:48:53.136Z,76.13
2022-12-26T00:53:55.167Z,76.40
2022-12-26T00:58:55.893Z,76.66
2022-12-26T01:03:58.779Z,76.64
2022-12-26T01:09:00.943Z,76.70
2022-12-26T01:14:01.603Z,76.95
2022-12-26T01:19:02.286Z,76.60
2022-12-26T01:24:04.679Z,77.01
2022-12-26T01:29:05.386Z,77.16
2022-12-26T01:34:06.047Z,76.89
2022-12-26T01:39:08.055Z,76.54
2022-12-26T01:44:47.405Z,76.62
2022-12-26T01:49:51.643Z,77.09
2022-12-26T01:54:55.916Z,77.14
2022-12-26T01:59:58.986Z,76.20
2022-12-26T02:05:17.089Z,76.97
2022-12-26T02:10:25.627Z,76.00
2022-12-26T02:15:26.970Z,76.88
2022-12-26T02:20:30.146Z,76.58
2022-12-26T02:25:51.506Z,76.91
2022-12-26T02:30:58.208Z,76.93
2022-12-26T02:36:15.847Z,77.03
2022-12-26T02:41:26.754Z,76.92
2022-12-26T02:46:51.399Z,76.61
2022-12-26T02:52:18.853Z,76.52
2022-12-26T02:57:42.541Z,76.39
2022-12-26T03:03:08.012Z,76.84
2022-12-26T03:08:31.315Z,75.91
2022-12-26T03:13:37.134Z,75.88
2022-12-26T03:18:57.881Z,76.01
2022-12-26T03:24:00.817Z,76.22
2022-12-26T03:29:18.874Z,75.75
2022-12-26T03:34:21.370Z,76.04
2022-12-26T03:39:54.087Z,75.69
2022-12-26T03:45:19.065Z,75.45
2022-12-26T03:51:02.473Z,75.69
2022-12-26T03:56:26.628Z,75.25
2022-12-26T04:01:48.432Z,75.12
2022-12-26T04:07:11.666Z,76.44
2022-12-26T04:12:36.210Z,75.86
2022-12-26T04:18:06.082Z,76.40
2022-12-26T04:23:32.350Z,76.39
2022-12-26T04:28:50.957Z,76.41
2022-12-26T04:34:12.179Z,75.97
2022-12-26T04:39:35.395Z,76.05
2022-12-26T04:44:37.892Z,75.97
2022-12-26T04:50:01.725Z,75.83
2022-12-26T04:55:03.908Z,75.80
2022-12-26T05:00:06.254Z,72.35
2022-12-26T05:05:25.015Z,69.47
2022-12-26T05:10:28.971Z,68.00
2022-12-26T05:15:49.716Z,67.25
2022-12-26T05:21:07.952Z,66.99
2022-12-26T05:26:33.998Z,67.09
2022-12-26T05:31:36.876Z,66.41
2022-12-26T05:36:40.720Z,66.96
2022-12-26T05:41:42.876Z,66.38
2022-12-26T05:46:43.695Z,66.23
2022-12-26T05:51:44.369Z,66.42
2022-12-26T05:56:49.509Z,66.34
2022-12-26T06:01:50.489Z,65.99
2022-12-26T06:06:52.283Z,65.63
2022-12-26T06:11:54.272Z,66.17
2022-12-26T06:16:55.105Z,65.80
2022-12-26T06:21:55.839Z,66.55
2022-12-26T06:26:57.816Z,65.96
2022-12-26T06:31:58.562Z,67.35
2022-12-26T06:36:59.512Z,66.74
2022-12-26T06:42:01.526Z,66.69
2022-12-26T06:47:03.206Z,66.80
2022-12-26T06:52:03.986Z,67.42
2022-12-26T06:57:06.232Z,66.93
2022-12-26T07:02:07.348Z,66.37
2022-12-26T07:07:08.100Z,66.28
2022-12-26T07:12:10.112Z,66.67
2022-12-26T07:17:11.261Z,66.81
2022-12-26T07:22:11.927Z,66.06
2022-12-26T07:27:13.951Z,65.70
2022-12-26T07:32:14.726Z,67.46
2022-12-26T07:37:15.471Z,66.54
2022-12-26T07:42:17.474Z,67.33
2022-12-26T07:47:18.129Z,67.43
2022-12-26T07:52:19.913Z,66.22
2022-12-26T07:57:47.332Z,66.72
2022-12-26T08:02:42.714Z,66.45
2022-12-26T08:07:43.491Z,66.60
2022-12-26T08:12:45.522Z,66.92
2022-12-26T08:17:46.235Z,66.02
2022-12-26T08:22:46.963Z,65.63
2022-12-26T08:27:49.031Z,64.79
2022-12-26T08:32:51.546Z,64.34
2022-12-26T08:37:52.197Z,63.37
2022-12-26T08:43:12.217Z,61.97
2022-12-26T08:48:16.023Z,62.33
2022-12-26T08:53:16.758Z,62.42
2022-12-26T08:58:18.806Z,62.38
2022-12-26T09:03:20.604Z,62.58
2022-12-26T09:08:21.361Z,62.27
2022-12-26T09:13:23.858Z,61.80
2022-12-26T09:18:24.812Z,61.18
2022-12-26T09:23:25.485Z,62.44
2022-12-26T09:28:27.643Z,61.43
2022-12-26T09:33:28.377Z,60.59
2022-12-26T09:38:30.176Z,59.90
2022-12-26T09:43:54.050Z,59.26
2022-12-26T09:49:00.238Z,59.76
2022-12-26T09:54:04.939Z,59.57
2022-12-26T09:59:14.433Z,60.08
2022-12-26T10:04:28.898Z,60.00
2022-12-26T10:09:51.743Z,60.66
2022-12-26T10:15:00.131Z,59.95
2022-12-26T10:20:13.392Z,59.51
2022-12-26T10:25:19.337Z,61.08
2022-12-26T10:30:24.609Z,62.23
2022-12-26T10:35:32.128Z,62.04
2022-12-26T10:40:41.792Z,61.61
2022-12-26T10:45:50.335Z,61.91
2022-12-26T10:50:51.261Z,61.83
2022-12-26T10:55:52.020Z,62.07
2022-12-26T11:00:54.124Z,61.85
2022-12-26T11:06:07.551Z,61.28
2022-12-26T11:11:14.073Z,61.15
2022-12-26T11:16:26.504Z,61.11
2022-12-26T11:21:29.372Z,60.63
2022-12-26T11:26:30.600Z,60.74
2022-12-26T11:31:33.090Z,60.20
2022-12-26T11:36:34.317Z,60.07
2022-12-26T11:41:39.913Z,59.30
2022-12-26T11:46:47.042Z,59.64
2022-12-26T11:51:54.144Z,60.08
2022-12-26T11:57:11.942Z,59.88
2022-12-26T12:02:29.441Z,60.19
2022-12-26T12:07:41.386Z,59.84
2022-12-26T12:12:48.337Z,60.31
2022-12-26T12:17:59.959Z,61.08
2022-12-26T12:23:21.551Z,61.96
2022-12-26T12:28:52.863Z,61.77
2022-12-26T12:34:03.494Z,61.97
2022-12-26T12:39:13.906Z,62.11
2022-12-26T12:44:23.006Z,62.21
2022-12-26T12:49:38.964Z,62.51
2022-12-26T12:55:19.783Z,62.53
2022-12-26T13:00:23.647Z,61.94
2022-12-26T13:05:39.346Z,63.07
2022-12-26T13:10:49.470Z,64.30
2022-12-26T13:15:55.528Z,74.10
2022-12-26T13:21:01.972Z,77.55
2022-12-26T13:26:10.595Z,80.40
2022-12-26T13:31:11.537Z,81.48
2022-12-26T13:36:38.133Z,82.80
2022-12-26T13:41:58.542Z,83.26
2022-12-26T13:47:00.767Z,83.54
2022-12-26T13:52:32.332Z,83.22
2022-12-26T13:57:40.204Z,83.83
2022-12-26T14:03:19.453Z,83.54
2022-12-26T14:08:33.268Z,83.65
2022-12-26T14:13:52.470Z,84.04
2022-12-26T14:19:01.658Z,83.21
2022-12-26T14:24:18.280Z,84.76
2022-12-26T14:29:26.050Z,84.75
2022-12-26T14:34:40.206Z,85.37
2022-12-26T14:39:58.642Z,85.59
2022-12-26T14:45:01.450Z,85.68
2022-12-26T14:50:35.865Z,85.10
2022-12-26T14:55:52.266Z,85.42
2022-12-26T15:00:54.306Z,85.50
2022-12-26T15:06:02.658Z,83.90
2022-12-26T15:11:52.881Z,84.10
2022-12-26T15:17:16.001Z,82.28
2022-12-26T15:22:46.064Z,82.52
2022-12-26T15:28:23.619Z,80.85
2022-12-26T15:33:32.781Z,80.51
2022-12-26T15:38:41.356Z,80.43
2022-12-26T15:44:02.608Z,80.08
2022-12-26T15:49:32.888Z,81.25
2022-12-26T15:55:03.025Z,81.26
2022-12-26T16:00:13.596Z,82.11
2022-12-26T16:05:34.565Z,82.13
2022-12-26T16:10:36.814Z,82.41
2022-12-26T16:15:46.547Z,82.46
2022-12-26T16:21:09.146Z,82.41
2022-12-26T16:26:18.472Z,82.37
2022-12-26T16:31:22.253Z,81.79
2022-12-26T16:36:26.339Z,81.92
2022-12-26T16:41:29.367Z,82.17
2022-12-26T16:46:31.845Z,82.85
2022-12-26T16:51:41.472Z,83.12
2022-12-26T16:56:42.631Z,82.79
2022-12-26T17:01:47.771Z,82.66
2022-12-26T17:06:53.181Z,82.79
2022-12-26T17:11:57.078Z,82.10
2022-12-26T17:16:59.476Z,81.49
2022-12-26T17:22:21.408Z,81.37
2022-12-26T17:27:24.280Z,81.31
2022-12-26T17:32:34.979Z,81.34
2022-12-26T17:37:37.576Z,81.24
2022-12-26T17:42:45.434Z,80.49
2022-12-26T17:47:46.606Z,79.15
2022-12-26T17:52:49.314Z,78.67
2022-12-26T17:57:50.024Z,78.68
2022-12-26T18:02:50.913Z,77.64
2022-12-26T18:07:53.543Z,76.60
2022-12-26T18:12:54.354Z,74.35
2022-12-26T18:17:55.374Z,73.87
2022-12-26T18:22:58.065Z,73.54
2022-12-26T18:28:00.436Z,74.12
2022-12-26T18:33:01.135Z,73.35
2022-12-26T18:38:03.285Z,72.26
2022-12-26T18:43:05.277Z,72.24
2022-12-26T18:48:07.713Z,73.47
2022-12-26T18:53:09.786Z,73.79
2022-12-26T18:58:11.309Z,73.55
2022-12-26T19:03:12.051Z,73.94
2022-12-26T19:08:14.091Z,73.71
2022-12-26T19:13:15.662Z,74.16
2022-12-26T19:18:16.760Z,72.80
2022-12-26T19:23:18.799Z,72.10
2022-12-26T19:28:19.512Z,71.58
2022-12-26T19:33:20.230Z,71.43
2022-12-26T19:38:22.272Z,71.24
2022-12-26T19:43:22.939Z,70.57
2022-12-26T19:48:23.688Z,70.93
2022-12-26T19:53:25.716Z,70.65
2022-12-26T19:58:30.912Z,69.97
2022-12-26T20:03:31.610Z,70.30
2022-12-26T20:08:33.698Z,69.72
2022-12-26T20:13:35.111Z,69.34
2022-12-26T20:18:36.497Z,69.99
2022-12-26T20:23:38.591Z,72.29
2022-12-26T20:28:40.194Z,80.35
2022-12-26T20:33:43.358Z,83.44
2022-12-26T20:38:46.307Z,84.72
2022-12-26T20:43:48.658Z,86.09
2022-12-26T20:48:49.963Z,86.97
2022-12-26T20:53:52.577Z,87.82
2022-12-26T20:58:53.400Z,88.91
2022-12-26T21:03:55.617Z,88.17
2022-12-26T21:08:58.222Z,88.86
2022-12-26T21:14:01.188Z,88.54
2022-12-26T21:19:02.308Z,88.05
2022-12-26T21:24:07.330Z,87.93
2022-12-26T21:29:09.863Z,87.51
2022-12-26T21:34:13.471Z,86.16
2022-12-26T21:39:15.813Z,84.78
2022-12-26T21:44:16.656Z,84.58
2022-12-26T21:49:17.352Z,84.88
2022-12-26T21:54:40.023Z,82.91
2022-12-26T21:59:58.116Z,82.69
2022-12-26T22:04:59.389Z,82.43
2022-12-26T22:10:01.497Z,83.88
2022-12-26T22:15:02.294Z,82.76
2022-12-26T22:20:02.988Z,82.47
2022-12-26T22:25:05.678Z,81.40
2022-12-26T22:30:07.112Z,81.71
2022-12-26T22:35:13.239Z,83.73
2022-12-26T22:40:18.739Z,83.02
2022-12-26T22:45:19.513Z,83.36
2022-12-26T22:50:20.192Z,83.00
2022-12-26T22:55:22.213Z,83.56
2022-12-26T23:00:22.879Z,84.67
2022-12-26T23:05:24.138Z,85.72
2022-12-26T23:10:27.128Z,86.18
2022-12-26T23:15:29.724Z,84.36
2022-12-26T23:20:53.250Z,84.20
2022-12-26T23:25:55.245Z,84.51
2022-12-26T23:30:57.101Z,84.67
2022-12-26T23:35:58.099Z,83.43
2022-12-26T23:41:00.158Z,80.64
2022-12-26T23:46:01.395Z,81.77
2022-12-26T23:51:03.433Z,81.43
2022-12-26T23:56:08.341Z,80.74
